Elliot Chaparral Reserve, California Weather observations

Data are for 10 minute period ending at time listed.
 Day   Time   Solar   Ave.   Ave.  Ave.  Vector  Max.   Baro.   Total    
  of    of     Rad.   Air    Rel.  Wind   Wind   Wind  Press.  Precip.   
Year   Day            Temp.  Hum.  Speed  Dir.   Gust                    
2014   (PST)  Kw/m2    F      %     mph   deg.    mph    mb.     in.     
-------------------------------------------------------------------------
 353    5:00   0.00   50.0    85    6.0    72     8.6   992.2    0.00 
 353    5:10   0.00   50.3    84    6.4    72     8.1   992.3    0.00 
 353    5:20   0.00   50.0    85    7.5    67     8.6   992.3    0.00 
 353    5:30   0.00   50.0    85    8.4    63     9.3   992.4    0.00 
 353    5:40   0.00   50.1    85    7.0    69     8.4   992.6    0.00 
 353    5:50   0.00   50.1    85    5.6    80     7.1   992.8    0.00 
 353    6:00   0.00   49.8    86    6.3    72     7.5   992.9    0.00 
 353    6:10   0.00   49.5    86    6.2    80     7.4   992.8    0.00 
 353    6:20   0.00   49.2    86    6.3    80     8.6   992.8    0.00 
 353    6:30   0.00   48.6    87    6.7    69     9.2   992.9    0.00 
 353    6:40   0.00   48.2    87    6.9    69     8.9   992.8    0.00 
 353    6:50   0.00   48.2    86    7.7    70     9.8   992.8    0.00 
 353    7:00   0.00   48.5    85    6.8    68     8.8   993.0    0.00 
 353    7:10   0.01   49.0    83    6.0    68     7.8   993.1    0.00 
 353    7:20   0.02   49.2    82    7.2    70     9.2   993.0    0.00 
 353    7:30   0.06   49.5    82    9.8    89    12.6   992.9    0.00 
 353    7:40   0.10   50.8    79    9.5    89    11.2   992.9    0.00 
 353    7:50   0.09   51.8    76    8.3    88    10.4   993.1    0.00 
 353    8:00   0.12   51.9    76    6.1    78     8.2   993.2    0.00 
 353    8:10   0.17   54.0    72    5.5    74     7.6   993.3    0.00 
 353    8:20   0.21   55.5    69    4.6    71     7.0   993.7    0.00 
 353    8:30   0.24   56.5    66    2.9    53     5.6   994.2    0.00 
 353    8:40   0.27   58.1    63    2.1    75     5.9   994.3    0.00 
 353    8:50   0.29   57.6    64    4.9   100     6.6   994.4    0.00 
 353    9:00   0.32   58.2    62    5.1   105     6.2   994.5    0.00 
 353    9:10   0.34   59.1    62    5.1   103     6.6   994.5    0.00 
 353    9:20   0.37   59.5    62    5.1   114     6.9   994.6    0.00 
 353    9:30   0.39   59.7    63    5.8   118     8.2   994.6    0.00 
 353    9:40   0.41   60.0    63    6.3   129     9.7   994.4    0.00 
 353    9:50   0.43   60.3    62    6.2   135     8.1   994.4    0.00 
 353   10:00   0.46   60.3    62    5.8   128     8.8   994.4    0.00 
 353   10:10   0.47   62.1    59    3.1   109     5.9   994.4    0.00 
 353   10:20   0.49   61.2    59    4.4    19     7.2   994.4    0.00 
 353   10:30   0.51   61.7    58    3.6    56     6.9   994.2    0.00 
 353   10:40   0.52   62.5    56    3.1    22     6.0   994.1    0.00 
 353   10:50   0.53   62.7    55    2.9   359     6.1   994.0    0.00 
 353   11:00   0.54   62.6    54    3.1     5     6.2   993.7    0.00 
 353   11:10   0.55   63.4    52    2.0   353     5.4   993.3    0.00 
 353   11:20   0.55   63.9    51    3.2    38     5.8   993.1    0.00 
 353   11:30   0.54   64.3    49    2.3   326     5.9   993.0    0.00 
 353   11:40   0.56   64.4    49    3.3   318     7.2   992.8    0.00 
 353   11:50   0.56   64.0    49    4.5   338     9.0   992.7    0.00 
 353   12:00   0.56   64.1    48    6.1   312    10.7   992.6    0.00 
 353   12:10   0.56   64.2    48    4.5   282     8.8   992.4    0.00 
 353   12:20   0.55   65.1    48    5.5   265    10.2   992.4    0.00 
 353   12:30   0.55   64.9    48    4.7   275    10.1   992.3    0.00 
 353   12:40   0.54   64.9    47    8.0   298    12.3   992.3    0.00 
 353   12:50   0.53   65.2    47    4.5   297    10.5   992.1    0.00 
 353   13:00   0.52   65.3    48    6.1   308    10.7   992.0    0.00 
 353   13:10   0.51   64.7    48    7.5   304    12.5   991.9    0.00 
 353   13:20   0.49   65.0    49    9.2   306    14.8   992.0    0.00 
 353   13:30   0.43   64.7    51    9.3   296    14.8   992.0    0.00 
 353   13:40   0.46   64.6    54   11.3   304    15.9   992.0    0.00 
 353   13:50   0.42   64.2    55   13.6   283    17.5   992.0    0.00 
 353   14:00   0.43   63.4    56   15.2   281    19.2   992.1    0.00 
 353   14:10   0.40   63.7    55   13.8   278    18.7   992.1    0.00 
 353   14:20   0.32   63.0    55   12.0   293    16.5   992.1    0.00 
 353   14:30   0.38   63.1    55   13.1   296    18.0   992.2    0.00 
 353   14:40   0.22   61.8    59   14.7   287    18.5   992.2    0.00 
 353   14:50   0.14   60.7    62   10.7   291    15.6   992.0    0.00 
 353   15:00   0.13   60.2    62    8.9   309    12.8   991.7    0.00 
 353   15:10   0.11   59.8    65    9.0   302    14.1   991.6    0.00 
 353   15:20   0.10   58.9    66   12.3   306    15.1   991.7    0.00 
 353   15:30   0.09   58.5    68   10.9   308    15.8   991.6    0.00 
 353   15:40   0.08   58.2    71   12.0   311    15.1   991.7    0.00 
 353   15:50   0.07   57.9    75    9.9   308    13.6   991.7    0.00 
 353   16:00   0.05   57.8    76    8.0   329    11.6   991.7    0.00 
 353   16:10   0.03   57.4    78    8.8   330    13.2   991.5    0.00 
 353   16:20   0.02   57.2    80    6.3   336     9.4   991.4    0.00 
 353   16:30   0.01   56.9    81    6.1   340     8.0   991.2    0.00 
 353   16:40   0.01   56.8    82    4.1   357     6.1   991.1    0.00 
 353   16:50   0.01   56.6    82    4.4   331     6.3   991.2    0.00 
 353   17:00   0.00   56.2    83    4.1   336     5.5   991.1    0.00 
 353   17:10   0.00   55.8    84    4.8   339     7.3   991.2    0.00 
 353   17:20   0.00   55.6    84    6.5   335     8.6   991.3    0.00 
 353   17:30   0.00   55.7    84    7.3   339     8.6   991.3    0.00 
 353   17:40   0.00   55.7    84    5.2   353     7.7   991.4    0.00 
 353   17:50   0.00   55.5    85    5.2     1     6.6   991.5    0.00 
 353   18:00   0.00   55.4    85    5.2     2     6.9   991.6    0.00 
 353   18:10   0.00   55.2    85    5.5     4     6.7   991.7    0.00 
 353   18:20   0.00   54.8    86    5.2   336     6.9   991.9    0.00 
 353   18:30   0.00   54.4    87    6.3   336     7.8   991.8    0.00 
 353   18:40   0.00   54.4    88    5.2   329     6.6   991.7    0.00 
 353   18:50   0.00   54.2    89    4.7   328     7.8   991.7    0.00 
 353   19:00   0.00   54.4    89    6.1   320     7.9   991.8    0.00 
 353   19:10   0.00   54.3    89    6.1   322     7.9   991.8    0.00 
 353   19:20   0.00   54.4    90    7.0   322     9.5   992.1    0.00 
 353   19:30   0.00   54.1    90    6.1   339     8.3   992.2    0.00 
 353   19:40   0.00   54.1    90    6.4   353     8.4   992.2    0.00 
 353   19:50   0.00   54.1    90    6.1   355     8.3   992.2    0.00 
 353   20:00   0.00   54.2    89    6.1   346     7.5   992.1    0.00 
 353   20:10   0.00   54.1    88    7.6   338     9.5   992.2    0.00 
 353   20:20   0.00   53.9    88    7.9   337     9.8   992.3    0.00 
 353   20:30   0.00   54.1    88    7.8   342    11.6   992.2    0.00 
 353   20:40   0.00   54.4    88    6.3   335     9.1   992.1    0.00 
 353   20:50   0.00   54.5    88    6.7   337     8.9   992.3    0.00 
 353   21:00   0.00   54.6    89    4.9   339     6.6   991.8    0.00 
 353   21:10   0.00   54.8    89    4.3   353     6.2   991.6    0.00 
 353   21:20   0.00   54.8    89    5.0     6     6.1   991.8    0.00 
 353   21:30   0.00   54.6    89    4.3    35     5.6   991.8    0.00 
 353   21:40   0.00   54.7    89    5.3    25     7.5   992.0    0.00 
 353   21:50   0.00   54.7    89    6.5     9     8.8   992.3    0.00 
 353   22:00   0.00   54.6    88    6.4     2     8.1   992.4    0.00 
 353   22:10   0.00   54.5    87    7.2   350     9.0   992.5    0.00 
 353   22:20   0.00   54.3    87    6.8   347     7.9   992.6    0.00 
 353   22:30   0.00   54.1    86    6.1   351     7.4   992.6    0.00 
 353   22:40   0.00   53.9    86    4.6    31     6.9   992.3    0.00 
 353   22:50   0.00   53.5    86    4.7    54     5.9   992.0    0.00 
 353   23:00   0.00   53.7    86    4.4    45     6.0   992.0    0.00 
 353   23:10   0.00   54.0    85    4.1     6     6.6   992.2    0.00 
 353   23:20   0.00   54.2    84    4.2   358     6.1   992.1    0.00 
 353   23:30   0.00   54.4    83    4.7     2     5.6   992.1    0.00 
 353   23:40   0.00   54.2    83    4.2    14     5.1   992.0    0.00 
 353   23:50   0.00   54.0    84    4.2    34     4.8   991.9    0.00 
 354    0:00   0.00   53.7    85    4.0    53     5.0   991.9    0.00 
 354    0:10   0.00   52.7    88    4.8    71     6.3   991.6    0.00 
 354    0:20   0.00   52.6    89    4.5    69     5.8   991.5    0.00 
 354    0:30   0.00   52.6    88    4.9    73     6.9   991.5    0.00 
 354    0:40   0.00   52.1    89    5.4    69     7.0   991.5    0.00 
 354    0:50   0.00   51.4    90    5.4    66     6.9   991.3    0.00 
 354    1:00   0.00   51.4    90    4.9    74     6.3   991.4    0.00 
 354    1:10   0.00   50.8    90    5.3    80     7.3   991.6    0.00 
 354    1:20   0.00   50.9    91    4.6    80     6.1   991.8    0.00 
 354    1:30   0.00   51.0    91    5.6   102     7.5   991.6    0.00 
 354    1:40   0.00   51.2    90    4.8    96     7.3   991.6    0.00 
 354    1:50   0.00   51.2    90    5.5   105     8.0   991.4    0.00 
 354    2:00   0.00   50.9    90    5.4    99     8.1   991.1    0.00 
 354    2:10   0.00   50.4    91    4.7    89     7.0   991.1    0.00 
 354    2:20   0.00   50.5    91    5.0   100     7.2   991.0    0.00 
 354    2:30   0.00   50.6    90    3.6    85     6.9   990.7    0.00 
 354    2:40   0.00   50.2    90    3.6    88     7.4   990.6    0.00 
 354    2:50   0.00   49.6    90    5.3    89     7.2   990.7    0.00 
 354    3:00   0.00   49.3    91    7.7   108    10.3   990.4    0.00 
 354    3:10   0.00   49.3    91    5.7    97     7.7   990.4    0.00 
 354    3:20   0.00   49.1    91    5.8   100     8.0   990.4    0.00 
 354    3:30   0.00   49.4    91    4.7    93     7.7   990.5    0.00 
 354    3:40   0.00   50.1    90    5.3    99     7.5   990.6    0.00 
 354    3:50   0.00   50.6    88    3.6    89     6.0   990.6    0.00 
 354    4:00   0.00   50.7    87    2.4    86     3.2   990.4    0.00 
 354    4:10   0.00   51.1    86    1.7   120     2.3   990.3    0.00 
 354    4:20   0.00   51.7    84    0.5   177     1.2   990.5    0.00 
 354    4:30   0.00   52.0    83    0.7   192     2.1   990.6    0.00 
 354    4:40   0.00   52.2    82    1.0   191     1.8   990.6    0.00 
 354    4:50   0.00   52.4    82    0.3   175     1.4   990.6    0.00 

Return to Elliot Chaparral Reserve graphs page.


Western Regional Climate Center,wrcc@dri.edu